LFRU/MXN METAR and TAF weather

Enter ICAO airport designator
Station Type Date Time Source
LFRU METAR 2019/12/09 18:00 UTC NOAA

LFRU 091800Z AUTO 29003KT 210V340 9999 BKN028 OVC033 09/05 Q1026


Station Type Date Time Source
LFRU Decoded METAR 2019/12/09 18:00 UTC NOAA

Morlaix / Ploujean, France (LFRU) 48-36N 003-49W
Dec 09, 2019 - 01:00 PM EST / 2019.12.09 1800 UTC
Wind: from the WNW (290 degrees) at 3 MPH (3 KT) (direction variable):0
Visibility: greater than 7 mile(s):0
Sky conditions: overcast
Temperature: 48 F (9 C)
Dew Point: 41 F (5 C)
Relative Humidity: 75%
Pressure (altimeter): 30.30 in. Hg (1026 hPa)
ob: LFRU 091800Z AUTO 29003KT 210V340 9999 BKN028 OVC033 09/05 Q1026
cycle: 18

Station Type Date Time Source
LFRU TAF UTC NOAA

Error!

Example: see airport list